sensor_id;sensor_type;location;lat;lon;timestamp;pressure;altitude;pressure_sealevel;temperature;humidity
50672;BME280;46021;55.882;37.654;2023-04-06T00:00:45;100251.44;;;2.64;74.83
50672;BME280;46021;55.882;37.654;2023-04-06T00:03:13;100253.16;;;2.65;75.15
50672;BME280;46021;55.882;37.654;2023-04-06T00:05:40;100245.41;;;2.62;74.91
50672;BME280;46021;55.882;37.654;2023-04-06T00:08:07;100246.19;;;2.55;75.93
50672;BME280;46021;55.882;37.654;2023-04-06T00:10:35;100249.69;;;2.60;74.68
50672;BME280;46021;55.882;37.654;2023-04-06T00:13:04;100247.03;;;2.52;75.18
50672;BME280;46021;55.882;37.654;2023-04-06T00:15:32;100247.00;;;2.48;75.28
50672;BME280;46021;55.882;37.654;2023-04-06T00:17:59;100250.38;;;2.45;76.20
50672;BME280;46021;55.882;37.654;2023-04-06T00:20:26;100247.84;;;2.47;76.31
50672;BME280;46021;55.882;37.654;2023-04-06T00:22:54;100238.31;;;2.37;75.97
50672;BME280;46021;55.882;37.654;2023-04-06T00:25:22;100244.31;;;2.39;75.77
50672;BME280;46021;55.882;37.654;2023-04-06T00:27:49;100242.59;;;2.38;76.75
50672;BME280;46021;55.882;37.654;2023-04-06T00:30:18;100245.19;;;2.39;75.72
50672;BME280;46021;55.882;37.654;2023-04-06T00:32:45;100239.97;;;2.31;75.80
50672;BME280;46021;55.882;37.654;2023-04-06T00:35:12;100251.97;;;2.32;76.24
50672;BME280;46021;55.882;37.654;2023-04-06T00:37:40;100249.38;;;2.29;75.81
50672;BME280;46021;55.882;37.654;2023-04-06T00:40:08;100243.31;;;2.26;76.72
50672;BME280;46021;55.882;37.654;2023-04-06T00:42:36;100249.28;;;2.22;76.93
50672;BME280;46021;55.882;37.654;2023-04-06T00:45:04;100243.22;;;2.17;76.73
50672;BME280;46021;55.882;37.654;2023-04-06T00:47:33;100249.22;;;2.17;76.46
50672;BME280;46021;55.882;37.654;2023-04-06T00:50:00;100254.44;;;2.23;75.62
50672;BME280;46021;55.882;37.654;2023-04-06T00:52:29;100250.97;;;2.20;75.84
50672;BME280;46021;55.882;37.654;2023-04-06T00:54:56;100255.25;;;2.19;76.24
50672;BME280;46021;55.882;37.654;2023-04-06T00:57:24;100249.22;;;2.16;76.11
50672;BME280;46021;55.882;37.654;2023-04-06T00:59:54;100250.97;;;2.18;76.40
50672;BME280;46021;55.882;37.654;2023-04-06T01:02:23;100250.97;;;2.18;76.23
50672;BME280;46021;55.882;37.654;2023-04-06T01:04:53;100242.31;;;2.13;76.65
50672;BME280;46021;55.882;37.654;2023-04-06T01:07:29;100247.47;;;2.13;76.48
50672;BME280;46021;55.882;37.654;2023-04-06T01:10:08;100238.81;;;2.08;76.56
50672;BME280;46021;55.882;37.654;2023-04-06T01:12:36;100238.03;;;2.12;76.28
50672;BME280;46021;55.882;37.654;2023-04-06T01:15:09;100238.00;;;2.09;76.09
50672;BME280;46021;55.882;37.654;2023-04-06T01:17:41;100242.31;;;2.10;76.07
50672;BME280;46021;55.882;37.654;2023-04-06T01:20:14;100237.16;;;2.10;75.28
50672;BME280;46021;55.882;37.654;2023-04-06T01:22:42;100240.53;;;2.07;75.02
50672;BME280;46021;55.882;37.654;2023-04-06T01:25:11;100249.09;;;2.05;75.85
50672;BME280;46021;55.882;37.654;2023-04-06T01:27:49;100247.28;;;1.98;75.50
50672;BME280;46021;55.882;37.654;2023-04-06T01:30:28;100248.97;;;1.95;76.28
50672;BME280;46021;55.882;37.654;2023-04-06T01:33:00;100225.69;;;1.85;76.50
50672;BME280;46021;55.882;37.654;2023-04-06T01:35:48;100249.75;;;1.90;76.62
50672;BME280;46021;55.882;37.654;2023-04-06T01:38:20;100244.59;;;1.85;76.06
50672;BME280;46021;55.882;37.654;2023-04-06T01:40:48;100241.94;;;1.81;76.64
50672;BME280;46021;55.882;37.654;2023-04-06T01:43:18;100236.78;;;1.79;76.60
50672;BME280;46021;55.882;37.654;2023-04-06T01:46:01;100244.47;;;1.79;76.62
50672;BME280;46021;55.882;37.654;2023-04-06T01:48:33;100236.66;;;1.71;77.68
50672;BME280;46021;55.882;37.654;2023-04-06T01:51:08;100242.56;;;1.63;76.99
50672;BME280;46021;55.882;37.654;2023-04-06T01:53:45;100240.06;;;1.67;76.68
50672;BME280;46021;55.882;37.654;2023-04-06T01:56:14;100247.78;;;1.69;76.77
50672;BME280;46021;55.882;37.654;2023-04-06T01:58:53;100240.03;;;1.66;77.09
50672;BME280;46021;55.882;37.654;2023-04-06T02:01:22;100245.97;;;1.62;78.00
50672;BME280;46021;55.882;37.654;2023-04-06T02:03:54;100245.97;;;1.62;77.11
50672;BME280;46021;55.882;37.654;2023-04-06T02:06:21;100245.09;;;1.60;77.80
50672;BME280;46021;55.882;37.654;2023-04-06T02:08:50;100244.19;;;1.56;78.43
50672;BME280;46021;55.882;37.654;2023-04-06T02:11:18;100259.66;;;1.59;77.36
50672;BME280;46021;55.882;37.654;2023-04-06T02:13:49;100247.63;;;1.58;77.99
50672;BME280;46021;55.882;37.654;2023-04-06T02:16:37;100260.44;;;1.56;78.09
50672;BME280;46021;55.882;37.654;2023-04-06T02:19:04;100246.78;;;1.58;77.57
50672;BME280;46021;55.882;37.654;2023-04-06T02:21:31;100248.38;;;1.51;78.36
50672;BME280;46021;55.882;37.654;2023-04-06T02:24:00;100255.22;;;1.50;77.09
50672;BME280;46021;55.882;37.654;2023-04-06T02:26:27;100256.88;;;1.45;79.03
50672;BME280;46021;55.882;37.654;2023-04-06T02:28:54;100256.00;;;1.45;77.34
50672;BME280;46021;55.882;37.654;2023-04-06T02:31:21;100258.53;;;1.40;78.20
50672;BME280;46021;55.882;37.654;2023-04-06T02:33:50;100263.69;;;1.43;77.79
50672;BME280;46021;55.882;37.654;2023-04-06T02:36:18;100255.97;;;1.43;78.68
50672;BME280;46021;55.882;37.654;2023-04-06T02:38:45;100261.91;;;1.39;78.28
50672;BME280;46021;55.882;37.654;2023-04-06T02:41:13;100272.25;;;1.42;78.13
50672;BME280;46021;55.882;37.654;2023-04-06T02:43:41;100272.19;;;1.39;77.63
50672;BME280;46021;55.882;37.654;2023-04-06T02:46:18;100271.34;;;1.39;78.44
50672;BME280;46021;55.882;37.654;2023-04-06T02:48:46;100268.72;;;1.35;78.82
50672;BME280;46021;55.882;37.654;2023-04-06T02:51:13;100275.66;;;1.41;77.52
50672;BME280;46021;55.882;37.654;2023-04-06T02:53:45;100283.31;;;1.38;78.45
50672;BME280;46021;55.882;37.654;2023-04-06T02:56:14;100283.28;;;1.35;78.88
50672;BME280;46021;55.882;37.654;2023-04-06T02:58:46;100284.06;;;1.31;79.21
50672;BME280;46021;55.882;37.654;2023-04-06T03:01:13;100274.69;;;1.33;79.16
50672;BME280;46021;55.882;37.654;2023-04-06T03:03:42;100276.41;;;1.35;78.98
50672;BME280;46021;55.882;37.654;2023-04-06T03:06:15;100271.19;;;1.29;78.11
50672;BME280;46021;55.882;37.654;2023-04-06T03:08:43;100280.75;;;1.38;78.96
50672;BME280;46021;55.882;37.654;2023-04-06T03:11:11;100288.56;;;1.44;79.02
50672;BME280;46021;55.882;37.654;2023-04-06T03:13:42;100286.94;;;1.52;78.06
50672;BME280;46021;55.882;37.654;2023-04-06T03:16:10;100291.25;;;1.53;77.53
50672;BME280;46021;55.882;37.654;2023-04-06T03:18:37;100292.13;;;1.54;78.32
50672;BME280;46021;55.882;37.654;2023-04-06T03:21:05;100296.63;;;1.69;78.32
50672;BME280;46021;55.882;37.654;2023-04-06T03:23:42;100289.00;;;1.77;77.55
50672;BME280;46021;55.882;37.654;2023-04-06T03:26:10;100292.63;;;1.92;78.00
50672;BME280;46021;55.882;37.654;2023-04-06T03:28:37;100289.28;;;1.98;77.23
50672;BME280;46021;55.882;37.654;2023-04-06T03:31:07;100293.75;;;2.13;77.16
50672;BME280;46021;55.882;37.654;2023-04-06T03:33:50;100303.41;;;2.32;77.39
50672;BME280;46021;55.882;37.654;2023-04-06T03:36:24;100300.22;;;2.52;77.28
50672;BME280;46021;55.882;37.654;2023-04-06T03:38:53;100306.50;;;2.79;77.30
50672;BME280;46021;55.882;37.654;2023-04-06T03:41:20;100310.22;;;3.11;77.01
50672;BME280;46021;55.882;37.654;2023-04-06T03:44:07;100312.25;;;3.53;76.13
50672;BME280;46021;55.882;37.654;2023-04-06T03:46:37;100313.34;;;3.90;76.25
50672;BME280;46021;55.882;37.654;2023-04-06T03:49:04;100307.47;;;4.23;74.42
50672;BME280;46021;55.882;37.654;2023-04-06T03:51:31;100313.63;;;4.62;73.99
50672;BME280;46021;55.882;37.654;2023-04-06T03:53:59;100319.72;;;4.77;73.41
50672;BME280;46021;55.882;37.654;2023-04-06T03:56:26;100319.75;;;5.01;71.88
50672;BME280;46021;55.882;37.654;2023-04-06T03:58:53;100304.25;;;5.32;70.99
50672;BME280;46021;55.882;37.654;2023-04-06T04:01:21;100315.44;;;5.50;70.39
50672;BME280;46021;55.882;37.654;2023-04-06T04:03:49;100309.38;;;5.63;69.73
50672;BME280;46021;55.882;37.654;2023-04-06T04:06:16;100318.00;;;5.60;68.52
50672;BME280;46021;55.882;37.654;2023-04-06T04:08:44;100317.94;;;5.93;68.12
50672;BME280;46021;55.882;37.654;2023-04-06T04:11:11;100318.72;;;6.30;67.58
50672;BME280;46021;55.882;37.654;2023-04-06T04:13:38;100321.94;;;6.74;67.31
50672;BME280;46021;55.882;37.654;2023-04-06T04:16:06;100322.63;;;7.00;66.71
50672;BME280;46021;55.882;37.654;2023-04-06T04:18:35;100331.00;;;7.36;65.47
50672;BME280;46021;55.882;37.654;2023-04-06T04:21:03;100324.75;;;7.59;64.59
50672;BME280;46021;55.882;37.654;2023-04-06T04:23:31;100328.97;;;7.69;63.21
50672;BME280;46021;55.882;37.654;2023-04-06T04:25:58;100325.16;;;8.04;62.89
50672;BME280;46021;55.882;37.654;2023-04-06T04:28:25;100322.59;;;8.03;61.62
50672;BME280;46021;55.882;37.654;2023-04-06T04:30:54;100315.25;;;8.35;61.83
50672;BME280;46021;55.882;37.654;2023-04-06T04:33:22;100319.09;;;8.75;60.96
50672;BME280;46021;55.882;37.654;2023-04-06T04:35:51;100321.91;;;9.20;59.82
50672;BME280;46021;55.882;37.654;2023-04-06T04:38:22;100313.75;;;9.42;59.68
50672;BME280;46021;55.882;37.654;2023-04-06T04:40:52;100314.47;;;9.50;57.67
50672;BME280;46021;55.882;37.654;2023-04-06T04:43:21;100322.19;;;9.54;55.93
50672;BME280;46021;55.882;37.654;2023-04-06T04:45:49;100298.22;;;9.87;57.35
50672;BME280;46021;55.882;37.654;2023-04-06T04:48:36;100310.16;;;10.42;56.62
50672;BME280;46021;55.882;37.654;2023-04-06T04:51:05;100324.28;;;10.71;54.80
50672;BME280;46021;55.882;37.654;2023-04-06T04:54:00;100321.78;;;11.05;53.37
50672;BME280;46021;55.882;37.654;2023-04-06T04:56:30;100312.31;;;11.37;53.96
50672;BME280;46021;55.882;37.654;2023-04-06T04:59:17;100309.88;;;11.64;51.95
50672;BME280;46021;55.882;37.654;2023-04-06T05:01:51;100312.97;;;12.13;52.05
50672;BME280;46021;55.882;37.654;2023-04-06T05:04:19;100319.03;;;12.74;52.60
50672;BME280;46021;55.882;37.654;2023-04-06T05:06:46;100319.16;;;12.98;49.51
50672;BME280;46021;55.882;37.654;2023-04-06T05:09:15;100316.03;;;12.57;48.46
50672;BME280;46021;55.882;37.654;2023-04-06T05:11:43;100321.25;;;12.57;47.20
50672;BME280;46021;55.882;37.654;2023-04-06T05:14:10;100321.09;;;12.63;48.09
50672;BME280;46021;55.882;37.654;2023-04-06T05:16:39;100324.84;;;12.54;48.44
50672;BME280;46021;55.882;37.654;2023-04-06T05:19:06;100325.66;;;12.84;48.24
50672;BME280;46021;55.882;37.654;2023-04-06T05:21:40;100332.91;;;13.33;48.12
50672;BME280;46021;55.882;37.654;2023-04-06T05:24:08;100321.09;;;13.73;47.28
50672;BME280;46021;55.882;37.654;2023-04-06T05:26:38;100324.13;;;14.11;46.70
50672;BME280;46021;55.882;37.654;2023-04-06T05:29:12;100319.91;;;14.54;45.97
50672;BME280;46021;55.882;37.654;2023-04-06T05:31:40;100330.84;;;14.41;44.85
50672;BME280;46021;55.882;37.654;2023-04-06T05:34:08;100337.06;;;14.86;44.73
50672;BME280;46021;55.882;37.654;2023-04-06T05:36:36;100307.13;;;14.68;44.06
50672;BME280;46021;55.882;37.654;2023-04-06T05:39:12;100326.94;;;14.99;43.58
50672;BME280;46021;55.882;37.654;2023-04-06T05:41:45;100325.47;;;14.92;42.98
50672;BME280;46021;55.882;37.654;2023-04-06T05:44:14;100325.75;;;14.13;42.33
50672;BME280;46021;55.882;37.654;2023-04-06T05:46:44;100319.72;;;12.79;42.85
50672;BME280;46021;55.882;37.654;2023-04-06T05:49:14;100315.47;;;11.83;44.14
50672;BME280;46021;55.882;37.654;2023-04-06T05:51:41;100326.28;;;10.60;45.81
50672;BME280;46021;55.882;37.654;2023-04-06T05:54:09;100333.38;;;9.60;47.46
50672;BME280;46021;55.882;37.654;2023-04-06T05:56:36;100333.13;;;8.65;49.29
50672;BME280;46021;55.882;37.654;2023-04-06T05:59:06;100336.38;;;8.08;51.21
50672;BME280;46021;55.882;37.654;2023-04-06T06:01:34;100335.22;;;7.50;52.60
50672;BME280;46021;55.882;37.654;2023-04-06T06:04:01;100339.72;;;7.29;53.68
50672;BME280;46021;55.882;37.654;2023-04-06T06:06:32;100346.81;;;7.06;53.77
50672;BME280;46021;55.882;37.654;2023-04-06T06:09:22;100334.91;;;6.74;54.84
50672;BME280;46021;55.882;37.654;2023-04-06T06:11:59;100333.28;;;6.48;55.75
50672;BME280;46021;55.882;37.654;2023-04-06T06:14:30;100335.09;;;6.35;56.59
50672;BME280;46021;55.882;37.654;2023-04-06T06:16:57;100331.63;;;6.38;56.15
50672;BME280;46021;55.882;37.654;2023-04-06T06:19:26;100332.47;;;6.41;55.99
50672;BME280;46021;55.882;37.654;2023-04-06T06:21:57;100320.41;;;6.33;56.84
50672;BME280;46021;55.882;37.654;2023-04-06T06:24:28;100326.47;;;6.29;57.20
50672;BME280;46021;55.882;37.654;2023-04-06T06:26:57;100332.53;;;6.23;57.17
50672;BME280;46021;55.882;37.654;2023-04-06T06:29:27;100330.81;;;6.30;57.52
50672;BME280;46021;55.882;37.654;2023-04-06T06:31:56;100338.50;;;6.42;57.72
50672;BME280;46021;55.882;37.654;2023-04-06T06:34:24;100341.06;;;6.50;57.32
50672;BME280;46021;55.882;37.654;2023-04-06T06:36:53;100347.06;;;6.59;57.40
50672;BME280;46021;55.882;37.654;2023-04-06T06:39:21;100338.44;;;6.57;57.67
50672;BME280;46021;55.882;37.654;2023-04-06T06:41:49;100332.34;;;6.66;57.72
50672;BME280;46021;55.882;37.654;2023-04-06T06:44:21;100328.88;;;6.75;57.32
50672;BME280;46021;55.882;37.654;2023-04-06T06:46:48;100338.31;;;6.82;57.51
50672;BME280;46021;55.882;37.654;2023-04-06T06:49:17;100327.88;;;6.91;57.30
50672;BME280;46021;55.882;37.654;2023-04-06T06:51:44;100336.44;;;7.02;57.16
50672;BME280;46021;55.882;37.654;2023-04-06T06:54:12;100337.28;;;7.09;57.46
50672;BME280;46021;55.882;37.654;2023-04-06T06:56:39;100332.88;;;7.17;57.27
50672;BME280;46021;55.882;37.654;2023-04-06T06:59:06;100327.69;;;7.19;57.29
50672;BME280;46021;55.882;37.654;2023-04-06T07:01:34;100325.97;;;7.16;57.76
50672;BME280;46021;55.882;37.654;2023-04-06T07:04:01;100316.44;;;7.21;57.25
50672;BME280;46021;55.882;37.654;2023-04-06T07:06:30;100323.28;;;7.29;56.82
50672;BME280;46021;55.882;37.654;2023-04-06T07:08:57;100327.56;;;7.34;57.08
50672;BME280;46021;55.882;37.654;2023-04-06T07:11:25;100320.63;;;7.36;56.79
50672;BME280;46021;55.882;37.654;2023-04-06T07:13:52;100322.28;;;7.47;56.40
50672;BME280;46021;55.882;37.654;2023-04-06T07:16:19;100317.13;;;7.40;56.60
50672;BME280;46021;55.882;37.654;2023-04-06T07:18:46;100328.28;;;7.53;57.48
50672;BME280;46021;55.882;37.654;2023-04-06T07:21:14;100324.75;;;7.59;56.35
50672;BME280;46021;55.882;37.654;2023-04-06T07:23:42;100327.28;;;7.68;56.47
50672;BME280;46021;55.882;37.654;2023-04-06T07:26:09;100312.56;;;7.70;56.09
50672;BME280;46021;55.882;37.654;2023-04-06T07:28:37;100316.00;;;7.69;56.02
50672;BME280;46021;55.882;37.654;2023-04-06T07:31:05;100332.28;;;7.87;55.88
50672;BME280;46021;55.882;37.654;2023-04-06T07:33:32;100305.50;;;7.85;56.15
50672;BME280;46021;55.882;37.654;2023-04-06T07:35:59;100317.50;;;7.93;56.17
50672;BME280;46021;55.882;37.654;2023-04-06T07:38:26;100327.69;;;8.10;56.17
50672;BME280;46021;55.882;37.654;2023-04-06T07:40:55;100324.16;;;8.17;55.89
50672;BME280;46021;55.882;37.654;2023-04-06T07:43:23;100309.38;;;8.23;55.47
50672;BME280;46021;55.882;37.654;2023-04-06T07:45:51;100312.63;;;8.40;55.16
50672;BME280;46021;55.882;37.654;2023-04-06T07:48:19;100310.88;;;8.45;54.50
50672;BME280;46021;55.882;37.654;2023-04-06T07:50:47;100312.47;;;8.52;55.12
50672;BME280;46021;55.882;37.654;2023-04-06T07:53:15;100309.09;;;8.47;54.31
50672;BME280;46021;55.882;37.654;2023-04-06T07:55:44;100309.00;;;8.56;54.08
50672;BME280;46021;55.882;37.654;2023-04-06T07:58:13;100308.00;;;8.64;53.74
50672;BME280;46021;55.882;37.654;2023-04-06T08:00:40;100308.66;;;8.81;54.14
50672;BME280;46021;55.882;37.654;2023-04-06T08:03:07;100303.22;;;8.96;53.93
50672;BME280;46021;55.882;37.654;2023-04-06T08:05:35;100308.22;;;9.09;53.38
50672;BME280;46021;55.882;37.654;2023-04-06T08:08:02;100305.56;;;9.13;53.35
50672;BME280;46021;55.882;37.654;2023-04-06T08:10:29;100306.28;;;9.20;52.77
50672;BME280;46021;55.882;37.654;2023-04-06T08:12:56;100292.41;;;9.21;52.70
50672;BME280;46021;55.882;37.654;2023-04-06T08:15:25;100301.78;;;9.30;52.41
50672;BME280;46021;55.882;37.654;2023-04-06T08:17:52;100316.53;;;9.31;51.77
50672;BME280;46021;55.882;37.654;2023-04-06T08:20:22;100298.16;;;9.40;51.76
50672;BME280;46021;55.882;37.654;2023-04-06T08:22:50;100304.72;;;9.63;51.94
50672;BME280;46021;55.882;37.654;2023-04-06T08:25:17;100288.72;;;9.83;51.70
50672;BME280;46021;55.882;37.654;2023-04-06T08:27:44;100303.22;;;9.96;50.69
50672;BME280;46021;55.882;37.654;2023-04-06T08:30:11;100300.19;;;10.18;51.19
50672;BME280;46021;55.882;37.654;2023-04-06T08:32:42;100297.06;;;10.45;51.15
50672;BME280;46021;55.882;37.654;2023-04-06T08:35:09;100281.06;;;10.61;49.03
50672;BME280;46021;55.882;37.654;2023-04-06T08:37:36;100294.78;;;10.69;48.51
50672;BME280;46021;55.882;37.654;2023-04-06T08:40:04;100287.72;;;10.74;48.47
50672;BME280;46021;55.882;37.654;2023-04-06T08:42:32;100268.44;;;10.81;48.13
50672;BME280;46021;55.882;37.654;2023-04-06T08:45:00;100289.03;;;10.92;47.72
50672;BME280;46021;55.882;37.654;2023-04-06T08:47:29;100290.19;;;11.18;48.08
50672;BME280;46021;55.882;37.654;2023-04-06T08:49:58;100284.44;;;11.38;47.29
50672;BME280;46021;55.882;37.654;2023-04-06T08:52:31;100284.06;;;11.86;45.94
50672;BME280;46021;55.882;37.654;2023-04-06T08:54:59;100278.66;;;12.81;44.09
50672;BME280;46021;55.882;37.654;2023-04-06T08:57:26;100264.38;;;13.95;41.43
50672;BME280;46021;55.882;37.654;2023-04-06T08:59:54;100279.22;;;15.52;41.29
50672;BME280;46021;55.882;37.654;2023-04-06T09:02:23;100265.16;;;16.51;36.46
50672;BME280;46021;55.882;37.654;2023-04-06T09:04:53;100274.22;;;17.71;37.01
50672;BME280;46021;55.882;37.654;2023-04-06T09:07:22;100264.19;;;18.60;34.89
50672;BME280;46021;55.882;37.654;2023-04-06T09:09:49;100277.28;;;19.99;35.78
50672;BME280;46021;55.882;37.654;2023-04-06T09:12:24;100275.22;;;20.74;30.83
50672;BME280;46021;55.882;37.654;2023-04-06T09:14:52;100273.34;;;21.69;31.68
50672;BME280;46021;55.882;37.654;2023-04-06T09:17:20;100261.00;;;22.19;30.75
50672;BME280;46021;55.882;37.654;2023-04-06T09:19:48;100244.97;;;22.58;27.95
50672;BME280;46021;55.882;37.654;2023-04-06T09:22:15;100259.06;;;22.71;28.08
50672;BME280;46021;55.882;37.654;2023-04-06T09:24:46;100262.97;;;22.42;27.84
50672;BME280;46021;55.882;37.654;2023-04-06T09:27:13;100266.00;;;22.85;27.99
50672;BME280;46021;55.882;37.654;2023-04-06T09:29:41;100264.47;;;23.53;27.92
50672;BME280;46021;55.882;37.654;2023-04-06T09:32:09;100264.31;;;22.84;25.98
50672;BME280;46021;55.882;37.654;2023-04-06T09:34:38;100272.25;;;22.73;27.51
50672;BME280;46021;55.882;37.654;2023-04-06T09:37:15;100260.72;;;23.09;26.36
50672;BME280;46021;55.882;37.654;2023-04-06T09:39:42;100254.94;;;23.73;26.97
50672;BME280;46021;55.882;37.654;2023-04-06T09:42:10;100260.53;;;24.16;26.04
50672;BME280;46021;55.882;37.654;2023-04-06T09:44:38;100263.84;;;24.74;25.89
50672;BME280;46021;55.882;37.654;2023-04-06T09:47:06;100263.44;;;25.64;26.12
50672;BME280;46021;55.882;37.654;2023-04-06T09:49:34;100257.16;;;25.65;23.87
50672;BME280;46021;55.882;37.654;2023-04-06T09:52:03;100259.91;;;24.89;24.09
50672;BME280;46021;55.882;37.654;2023-04-06T09:54:35;100261.03;;;24.21;24.33
50672;BME280;46021;55.882;37.654;2023-04-06T09:57:07;100264.56;;;24.76;24.94
50672;BME280;46021;55.882;37.654;2023-04-06T09:59:44;100257.66;;;25.59;24.27
50672;BME280;46021;55.882;37.654;2023-04-06T10:02:22;100252.53;;;25.46;23.36
50672;BME280;46021;55.882;37.654;2023-04-06T10:04:56;100252.38;;;25.48;23.83
50672;BME280;46021;55.882;37.654;2023-04-06T10:07:26;100252.72;;;22.61;24.10
50672;BME280;46021;55.882;37.654;2023-04-06T10:09:55;100249.78;;;22.77;24.99
50672;BME280;46021;55.882;37.654;2023-04-06T10:12:22;100254.63;;;22.35;24.91
50672;BME280;46021;55.882;37.654;2023-04-06T10:14:51;100260.25;;;22.67;25.38
50672;BME280;46021;55.882;37.654;2023-04-06T10:17:19;100264.88;;;23.01;25.34
50672;BME280;46021;55.882;37.654;2023-04-06T10:19:50;100262.56;;;23.20;24.24
50672;BME280;46021;55.882;37.654;2023-04-06T10:22:35;100249.31;;;22.83;24.01
50672;BME280;46021;55.882;37.654;2023-04-06T10:25:04;100239.94;;;22.42;25.29
50672;BME280;46021;55.882;37.654;2023-04-06T10:27:32;100254.81;;;22.19;25.07
50672;BME280;46021;55.882;37.654;2023-04-06T10:30:05;100258.19;;;22.47;24.77
50672;BME280;46021;55.882;37.654;2023-04-06T10:32:34;100253.50;;;22.98;25.68
50672;BME280;46021;55.882;37.654;2023-04-06T10:35:09;100261.94;;;23.52;24.47
50672;BME280;46021;55.882;37.654;2023-04-06T10:37:49;100250.81;;;23.69;23.83
50672;BME280;46021;55.882;37.654;2023-04-06T10:40:22;100238.41;;;23.34;23.95
50672;BME280;46021;55.882;37.654;2023-04-06T10:42:49;100254.84;;;23.28;24.13
50672;BME280;46021;55.882;37.654;2023-04-06T10:45:21;100261.91;;;23.41;24.07
50672;BME280;46021;55.882;37.654;2023-04-06T10:47:49;100240.94;;;23.83;24.72
50672;BME280;46021;55.882;37.654;2023-04-06T10:50:16;100260.97;;;23.75;23.98
50672;BME280;46021;55.882;37.654;2023-04-06T10:52:44;100256.25;;;23.57;24.42
50672;BME280;46021;55.882;37.654;2023-04-06T10:55:14;100253.53;;;23.92;24.64
50672;BME280;46021;55.882;37.654;2023-04-06T10:57:41;100236.69;;;24.37;24.27
50672;BME280;46021;55.882;37.654;2023-04-06T11:00:11;100239.81;;;24.85;23.71
50672;BME280;46021;55.882;37.654;2023-04-06T11:02:40;100244.94;;;24.77;23.89
50672;BME280;46021;55.882;37.654;2023-04-06T11:05:07;100243.66;;;24.60;23.59
50672;BME280;46021;55.882;37.654;2023-04-06T11:07:34;100254.47;;;23.22;23.95
50672;BME280;46021;55.882;37.654;2023-04-06T11:10:02;100246.06;;;23.04;24.57
50672;BME280;46021;55.882;37.654;2023-04-06T11:12:29;100249.53;;;23.86;25.09
50672;BME280;46021;55.882;37.654;2023-04-06T11:14:58;100246.72;;;23.77;24.03
50672;BME280;46021;55.882;37.654;2023-04-06T11:17:30;100228.50;;;23.01;23.98
50672;BME280;46021;55.882;37.654;2023-04-06T11:19:59;100257.31;;;23.07;24.27
50672;BME280;46021;55.882;37.654;2023-04-06T11:25:09;100257.19;;;22.85;24.11
50672;BME280;46021;55.882;37.654;2023-04-06T11:27:38;100251.72;;;22.75;24.81
50672;BME280;46021;55.882;37.654;2023-04-06T11:30:07;100247.63;;;22.58;24.66
50672;BME280;46021;55.882;37.654;2023-04-06T11:32:39;100251.59;;;23.01;24.73
50672;BME280;46021;55.882;37.654;2023-04-06T11:35:11;100243.91;;;23.44;24.39
50672;BME280;46021;55.882;37.654;2023-04-06T11:37:38;100243.22;;;23.18;24.32
50672;BME280;46021;55.882;37.654;2023-04-06T11:40:07;100247.38;;;23.33;24.78
50672;BME280;46021;55.882;37.654;2023-04-06T11:42:35;100229.31;;;22.42;24.39
50672;BME280;46021;55.882;37.654;2023-04-06T11:45:03;100231.38;;;21.23;25.92
50672;BME280;46021;55.882;37.654;2023-04-06T11:47:31;100239.03;;;21.40;26.17
50672;BME280;46021;55.882;37.654;2023-04-06T11:50:06;100232.59;;;21.57;25.49
50672;BME280;46021;55.882;37.654;2023-04-06T11:52:35;100229.59;;;21.62;25.86
50672;BME280;46021;55.882;37.654;2023-04-06T11:55:11;100237.25;;;21.54;26.32
50672;BME280;46021;55.882;37.654;2023-04-06T11:57:39;100242.03;;;21.74;26.51
50672;BME280;46021;55.882;37.654;2023-04-06T12:00:07;100227.94;;;21.61;25.66
50672;BME280;46021;55.882;37.654;2023-04-06T12:02:35;100231.53;;;21.86;26.18
50672;BME280;46021;55.882;37.654;2023-04-06T12:05:03;100229.13;;;22.19;26.01
50672;BME280;46021;55.882;37.654;2023-04-06T12:07:31;100229.38;;;21.91;25.74
50672;BME280;46021;55.882;37.654;2023-04-06T12:10:01;100233.00;;;21.90;25.55
50672;BME280;46021;55.882;37.654;2023-04-06T12:12:29;100222.59;;;21.87;25.69
50672;BME280;46021;55.882;37.654;2023-04-06T12:14:56;100222.31;;;21.13;25.94
50672;BME280;46021;55.882;37.654;2023-04-06T12:17:24;100226.81;;;21.25;25.89
50672;BME280;46021;55.882;37.654;2023-04-06T12:19:51;100234.41;;;21.17;26.27
50672;BME280;46021;55.882;37.654;2023-04-06T12:22:18;100229.25;;;20.88;26.80
50672;BME280;46021;55.882;37.654;2023-04-06T12:24:46;100224.19;;;20.85;26.73
50672;BME280;46021;55.882;37.654;2023-04-06T12:27:14;100225.44;;;20.38;26.40
50672;BME280;46021;55.882;37.654;2023-04-06T12:29:43;100212.63;;;20.03;27.13
50672;BME280;46021;55.882;37.654;2023-04-06T12:32:10;100231.41;;;19.55;28.01
50672;BME280;46021;55.882;37.654;2023-04-06T12:34:38;100227.72;;;18.83;28.06
50672;BME280;46021;55.882;37.654;2023-04-06T12:37:06;100219.69;;;19.00;28.63
50672;BME280;46021;55.882;37.654;2023-04-06T12:39:33;100228.91;;;18.61;28.86
50672;BME280;46021;55.882;37.654;2023-04-06T12:42:01;100230.53;;;18.48;29.01
50672;BME280;46021;55.882;37.654;2023-04-06T12:44:30;100222.06;;;18.73;28.95
50672;BME280;46021;55.882;37.654;2023-04-06T12:46:57;100202.84;;;18.87;28.88
50672;BME280;46021;55.882;37.654;2023-04-06T12:49:25;100219.56;;;18.40;29.18
50672;BME280;46021;55.882;37.654;2023-04-06T12:51:53;100229.94;;;18.43;29.56
50672;BME280;46021;55.882;37.654;2023-04-06T12:54:20;100220.38;;;18.08;29.18
50672;BME280;46021;55.882;37.654;2023-04-06T12:56:48;100220.59;;;17.88;29.84
50672;BME280;46021;55.882;37.654;2023-04-06T12:59:15;100214.44;;;18.05;30.05